Time;durP1;ratioP1;P1;durP2;ratioP2;P2;SDS_P1;SDS_P2;PMS_P1;PMS_P2;Temp;Humidity;BMP_temperature;BMP_pressure;BME280_temperature;BME280_humidity;BME280_pressure;Samples;Min_cycle;Max_cycle;Signal;HPM_P1;HPM_P2
2023/06/28 00:00:02;;;;;;;;;2.50;2.50;;;;;21.92;41.13;99217.06;5093123;27;45690;-59
2023/06/28 00:02:28;;;;;;;;;3.00;2.00;;;;;21.83;40.87;99222.34;5086713;27;45396;-59
2023/06/28 00:04:54;;;;;;;;;3.00;2.75;;;;;21.72;41.60;99217.06;5092159;27;45731;-59
2023/06/28 00:07:20;;;;;;;;;1.00;1.00;;;;;21.61;41.91;99212.59;5091708;27;45443;-59
2023/06/28 00:09:45;;;;;;;;;3.00;3.00;;;;;21.51;42.44;99217.03;5094005;27;46647;-59
2023/06/28 00:12:10;;;;;;;;;3.75;3.50;;;;;21.43;42.37;99219.50;5090710;27;45406;-58
2023/06/28 00:14:36;;;;;;;;;4.00;3.75;;;;;21.37;42.32;99214.63;5090943;27;45967;-59
2023/06/28 00:17:01;;;;;;;;;4.00;3.50;;;;;21.29;43.33;99212.56;5086405;27;45491;-59
2023/06/28 00:19:26;;;;;;;;;3.00;3.00;;;;;21.20;43.71;99216.03;5092693;27;46393;-59
2023/06/28 00:22:03;;;;;;;;;3.00;3.00;;;;;21.10;43.55;99215.91;5087967;27;45478;-59
2023/06/28 00:24:28;;;;;;;;;7.40;3.40;;;;;21.02;44.24;99209.47;5093766;27;45359;-59
2023/06/28 00:26:53;;;;;;;;;2.00;2.00;;;;;20.95;44.15;99216.31;5087008;27;45451;-59
2023/06/28 00:29:19;;;;;;;;;3.25;3.00;;;;;20.90;43.92;99216.69;5093571;27;46547;-59
2023/06/28 00:31:44;;;;;;;;;2.50;2.50;;;;;20.86;44.00;99213.38;5090072;27;45376;-59
2023/06/28 00:34:09;;;;;;;;;3.50;3.50;;;;;20.84;44.16;99201.94;5092007;27;45494;-59
2023/06/28 00:36:35;;;;;;;;;3.00;3.00;;;;;20.82;44.20;99201.22;5084439;27;45831;-59
2023/06/28 00:39:00;;;;;;;;;4.00;2.50;;;;;20.80;44.48;99202.31;5093036;27;45458;-59
2023/06/28 00:41:25;;;;;;;;;4.00;3.50;;;;;20.79;44.75;99204.13;5088658;27;45543;-59
2023/06/28 00:43:51;;;;;;;;;3.00;3.00;;;;;20.79;44.37;99197.91;5090819;27;45444;-59
2023/06/28 00:46:16;;;;;;;;;2.00;2.00;;;;;20.79;45.01;99209.47;5089420;27;45496;-59
2023/06/28 00:48:42;;;;;;;;;3.00;3.00;;;;;20.78;44.33;99202.41;5076695;27;47828;-59
2023/06/28 00:51:09;;;;;;;;;5.75;3.75;;;;;20.76;44.82;99211.59;5087510;27;45517;-59
2023/06/28 00:53:34;;;;;;;;;3.50;3.50;;;;;20.70;45.17;99206.72;5076489;27;45339;-59
2023/06/28 00:56:00;;;;;;;;;3.50;3.50;;;;;20.63;45.42;99206.34;5087842;27;45478;-59
2023/06/28 00:58:25;;;;;;;;;5.00;4.00;;;;;20.59;46.24;99204.03;5094857;27;46157;-59
2023/06/28 01:00:51;;;;;;;;;3.75;3.00;;;;;20.51;45.73;99213.53;5091350;27;45491;-59
2023/06/28 01:03:18;;;;;;;;;3.50;3.50;;;;;20.44;46.65;99211.47;5093683;27;45758;-59
2023/06/28 01:05:49;;;;;;;;;3.50;3.50;;;;;20.38;46.75;99204.78;5075738;27;45433;-59
2023/06/28 01:08:15;;;;;;;;;4.40;4.40;;;;;20.30;47.01;99203.63;5091489;27;45413;-59
2023/06/28 01:10:41;;;;;;;;;3.00;2.20;;;;;20.26;47.65;99200.34;5090729;27;45538;-59
2023/06/28 01:13:08;;;;;;;;;4.00;2.80;;;;;20.22;47.28;99196.22;5092786;27;45440;-59
2023/06/28 01:15:33;;;;;;;;;4.75;4.00;;;;;20.20;47.37;99193.66;5091788;27;45461;-59
2023/06/28 01:18:00;;;;;;;;;4.00;3.75;;;;;20.17;47.32;99185.84;5084362;27;45482;-59
2023/06/28 01:20:30;;;;;;;;;5.00;3.20;;;;;20.17;47.17;99195.72;5093023;27;45516;-59
2023/06/28 01:22:56;;;;;;;;;3.50;3.50;;;;;20.13;47.31;99189.72;5086383;27;45411;-59
2023/06/28 01:25:22;;;;;;;;;3.00;3.00;;;;;20.09;47.82;99188.28;5092422;27;45409;-59
2023/06/28 01:27:48;;;;;;;;;3.00;3.00;;;;;20.03;48.50;99180.72;5086467;27;45683;-59
2023/06/28 01:30:15;;;;;;;;;3.60;3.60;;;;;19.99;48.06;99191.78;5092190;27;45403;-59
2023/06/28 01:32:42;;;;;;;;;3.40;3.40;;;;;19.94;48.41;99189.44;5087808;27;45457;-59
2023/06/28 01:35:08;;;;;;;;;5.50;3.25;;;;;19.94;48.18;99183.28;5092118;27;45454;-59
2023/06/28 01:37:34;;;;;;;;;4.00;4.00;;;;;19.94;48.56;99183.28;5071719;27;46583;-59
2023/06/28 01:40:02;;;;;;;;;4.80;4.00;;;;;19.93;48.83;99182.44;5092455;27;45343;-59
2023/06/28 01:42:27;;;;;;;;;4.40;3.60;;;;;19.89;48.93;99180.09;5068378;28;45495;-59
2023/06/28 01:44:53;;;;;;;;;3.50;2.50;;;;;19.84;49.71;99175.09;5070999;27;45564;-59
2023/06/28 01:47:18;;;;;;;;;4.00;4.00;;;;;19.79;48.96;99166.56;5081261;27;45553;-59
2023/06/28 01:49:44;;;;;;;;;4.00;4.00;;;;;19.78;49.30;99164.84;5090439;27;45385;-59
2023/06/28 01:52:10;;;;;;;;;4.75;4.00;;;;;19.77;48.63;99160.50;5083670;27;45578;-59
2023/06/28 01:54:35;;;;;;;;;4.00;3.00;;;;;19.77;49.25;99164.00;5085948;27;45380;-59
2023/06/28 01:57:00;;;;;;;;;5.00;4.00;;;;;19.75;49.42;99160.63;5088063;27;45550;-59
2023/06/28 01:59:26;;;;;;;;;5.50;4.00;;;;;19.74;49.48;99164.25;5091881;27;45328;-59
2023/06/28 02:01:51;;;;;;;;;5.00;4.25;;;;;19.70;49.66;99164.59;5084900;27;45451;-59
2023/06/28 02:04:17;;;;;;;;;2.00;2.00;;;;;19.67;49.66;99163.00;5094260;27;45927;-59
2023/06/28 02:06:42;;;;;;;;;3.25;3.25;;;;;19.62;49.95;99162.50;5085947;27;45522;-59
2023/06/28 02:09:08;;;;;;;;;4.00;4.00;;;;;19.61;49.71;99165.28;5084640;27;45383;-59
2023/06/28 02:11:33;;;;;;;;;4.00;3.25;;;;;19.61;50.66;99170.66;5091653;27;45399;-59
2023/06/28 02:13:59;;;;;;;;;4.00;4.00;;;;;19.55;51.16;99168.47;5075714;27;45341;-59
2023/06/28 02:16:27;;;;;;;;;4.75;4.00;;;;;19.48;50.61;99170.69;5084226;27;45474;-59
2023/06/28 02:18:52;;;;;;;;;3.00;3.00;;;;;19.45;50.70;99169.09;5090160;27;45440;-59
2023/06/28 02:21:18;;;;;;;;;3.00;3.00;;;;;19.46;50.02;99175.31;5074822;27;45624;-59
2023/06/28 02:23:43;;;;;;;;;4.00;4.00;;;;;19.45;49.94;99177.13;5093608;27;45544;-59
2023/06/28 02:26:09;;;;;;;;;4.00;4.00;;;;;19.45;50.31;99169.09;5087493;27;46299;-59
2023/06/28 02:28:34;;;;;;;;;3.50;3.25;;;;;19.42;49.93;99172.03;5089541;27;45476;-59
2023/06/28 02:30:59;;;;;;;;;4.50;3.50;;;;;19.44;50.59;99174.56;5089008;27;45446;-59
2023/06/28 02:33:25;;;;;;;;;6.50;4.25;;;;;19.46;50.50;99175.31;5089345;27;45446;-59
2023/06/28 02:35:50;;;;;;;;;5.00;4.00;;;;;19.44;51.01;99175.41;5072259;27;48268;-59
2023/06/28 02:38:15;;;;;;;;;5.00;3.00;;;;;19.41;50.66;99175.69;5076914;27;45396;-59
2023/06/28 02:40:41;;;;;;;;;4.00;4.00;;;;;19.40;50.22;99173.97;5089951;27;45499;-59
2023/06/28 02:43:06;;;;;;;;;1.00;0.00;;;;;19.39;50.66;99171.41;5088958;27;45389;-59
2023/06/28 02:45:31;;;;;;;;;3.25;3.25;;;;;19.37;50.84;99173.34;5094376;27;45448;-59
2023/06/28 02:47:57;;;;;;;;;4.50;4.50;;;;;19.30;50.76;99170.25;5094776;27;45311;-59
2023/06/28 02:50:24;;;;;;;;;4.00;4.00;;;;;19.29;50.41;99165.03;5093070;27;45440;-59
2023/06/28 02:52:49;;;;;;;;;5.50;4.00;;;;;19.30;50.51;99169.41;5103234;27;45336;-59
2023/06/28 02:55:15;;;;;;;;;5.50;3.00;;;;;19.29;50.71;99170.38;5091569;27;46503;-59
2023/06/28 02:57:40;;;;;;;;;2.50;2.50;;;;;19.27;50.85;99167.81;5090760;27;45560;-59
2023/06/28 03:00:07;;;;;;;;;4.00;4.00;;;;;19.24;51.01;99164.53;5095180;27;45450;-59
2023/06/28 03:02:33;;;;;;;;;5.00;4.00;;;;;19.21;50.50;99162.09;5075552;27;45376;-59
2023/06/28 03:04:58;;;;;;;;;5.50;4.75;;;;;19.18;50.98;99165.84;5095034;27;46539;-59
2023/06/28 03:07:23;;;;;;;;;4.75;4.50;;;;;19.14;51.48;99161.69;5094704;27;45400;-59
2023/06/28 03:09:49;;;;;;;;;1.00;1.00;;;;;19.10;51.98;99170.94;5095280;27;45509;-59
2023/06/28 03:12:14;;;;;;;;;3.75;2.00;;;;;19.06;52.09;99162.28;5094713;27;45430;-59
2023/06/28 03:14:40;;;;;;;;;4.00;4.00;;;;;19.02;51.75;99157.25;5095357;27;46209;-59
2023/06/28 03:17:05;;;;;;;;;6.50;3.75;;;;;18.99;52.36;99157.47;5092700;27;45444;-59
2023/06/28 03:19:30;;;;;;;;;5.00;3.75;;;;;18.94;52.57;99151.63;5096912;27;45623;-59
2023/06/28 03:21:56;;;;;;;;;4.00;4.00;;;;;18.94;51.89;99155.13;5085458;27;45369;-59
2023/06/28 03:24:21;;;;;;;;;5.75;5.00;;;;;18.92;52.14;99162.44;5096525;27;46396;-59
2023/06/28 03:26:47;;;;;;;;;4.00;4.00;;;;;18.92;52.44;99157.09;5088213;27;45380;-59
2023/06/28 03:29:12;;;;;;;;;5.25;5.25;;;;;18.89;51.74;99151.97;5087108;27;45563;-59
2023/06/28 03:31:37;;;;;;;;;3.75;3.75;;;;;18.88;51.77;99162.78;5090469;27;45608;-59
2023/06/28 03:34:03;;;;;;;;;6.00;4.75;;;;;18.86;51.38;99162.88;5095705;27;45592;-59
2023/06/28 03:36:29;;;;;;;;;4.50;4.50;;;;;18.85;51.59;99160.31;5089492;27;45409;-59
2023/06/28 03:38:55;;;;;;;;;5.00;4.50;;;;;18.81;51.33;99157.88;5089828;27;45517;-59
2023/06/28 03:41:20;;;;;;;;;5.50;4.50;;;;;18.83;51.40;99161.28;5089254;27;45479;-58
2023/06/28 03:43:46;;;;;;;;;3.50;3.00;;;;;18.84;51.80;99154.13;5095631;27;46442;-58
2023/06/28 03:46:12;;;;;;;;;5.40;4.60;;;;;18.85;51.83;99154.97;5088515;27;45486;-59
2023/06/28 03:48:37;;;;;;;;;4.00;4.00;;;;;18.87;51.67;99156.56;5095235;27;45869;-59
2023/06/28 03:51:03;;;;;;;;;5.50;5.50;;;;;18.90;51.30;99160.84;5084555;27;45524;-58
2023/06/28 03:53:28;;;;;;;;;4.00;4.00;;;;;18.92;51.25;99159.78;5095481;27;46347;-58
2023/06/28 03:55:53;;;;;;;;;5.00;4.00;;;;;18.96;50.93;99160.38;5084466;27;45543;-58
2023/06/28 03:58:19;;;;;;;;;3.00;3.00;;;;;18.98;51.45;99158.44;5089185;27;45461;-59
2023/06/28 04:00:44;;;;;;;;;4.00;4.00;;;;;19.01;50.84;99148.38;5075561;27;45504;-59
2023/06/28 04:03:09;;;;;;;;;4.50;3.00;;;;;19.05;51.19;99149.88;5092478;27;45975;-58
2023/06/28 04:05:35;;;;;;;;;1.00;1.00;;;;;19.10;51.16;99149.53;5086823;27;45410;-59
2023/06/28 04:08:02;;;;;;;;;2.75;2.75;;;;;19.12;50.65;99148.44;5091476;27;45593;-59
2023/06/28 04:10:27;;;;;;;;;3.50;3.50;;;;;19.15;50.23;99150.88;5091235;27;45420;-58
2023/06/28 04:12:53;;;;;;;;;4.25;4.25;;;;;19.21;50.72;99156.75;5093463;27;45488;-59
2023/06/28 04:15:19;;;;;;;;;4.50;4.50;;;;;19.24;50.10;99145.84;5092772;27;45365;-58
2023/06/28 04:17:44;;;;;;;;;3.75;3.75;;;;;19.28;50.67;99152.63;5086679;27;45404;-58
2023/06/28 04:20:10;;;;;;;;;4.00;4.00;;;;;19.32;50.30;99154.13;5063756;27;45575;-58
2023/06/28 04:22:36;;;;;;;;;6.40;3.00;;;;;19.29;50.87;99149.84;5088405;27;45413;-58
2023/06/28 04:25:02;;;;;;;;;5.25;4.00;;;;;19.28;50.48;99153.47;5089150;27;45457;-58
2023/06/28 04:27:28;;;;;;;;;4.75;4.00;;;;;19.31;50.74;99155.06;5087747;27;45566;-58
2023/06/28 04:29:53;;;;;;;;;2.00;2.00;;;;;19.31;50.45;99152.41;5089024;27;45433;-59
2023/06/28 04:32:23;;;;;;;;;3.50;3.00;;;;;19.32;49.83;99164.81;5091631;27;45483;-59
2023/06/28 04:34:53;;;;;;;;;3.40;2.80;;;;;19.31;50.39;99157.75;5091454;27;45532;-58
2023/06/28 04:37:22;;;;;;;;;6.25;5.75;;;;;19.30;51.00;99158.72;5088925;27;45508;-59
2023/06/28 04:39:48;;;;;;;;;4.00;4.00;;;;;19.28;50.33;99153.47;5092014;27;45874;-58
2023/06/28 04:42:14;;;;;;;;;4.00;3.00;;;;;19.29;49.82;99154.34;5080516;27;46155;-58
2023/06/28 04:44:46;;;;;;;;;4.50;4.00;;;;;19.29;50.48;99149.00;5090434;27;45467;-59
2023/06/28 04:47:15;;;;;;;;;3.40;3.40;;;;;19.31;49.77;99155.06;5085777;27;45480;-59
2023/06/28 04:49:49;;;;;;;;;4.00;3.25;;;;;19.31;50.97;99155.94;5086757;27;45523;-59
2023/06/28 04:52:18;;;;;;;;;4.20;3.20;;;;;19.36;50.61;99158.25;5102589;27;45532;-59
2023/06/28 04:54:46;;;;;;;;;5.40;5.00;;;;;19.39;50.26;99155.38;5092235;27;45401;-59
2023/06/28 04:57:13;;;;;;;;;3.80;3.80;;;;;19.40;50.22;99151.72;5087253;27;45447;-59
2023/06/28 04:59:39;;;;;;;;;4.00;4.00;;;;;19.42;50.39;99160.50;5085295;27;45555;-59
2023/06/28 05:02:05;;;;;;;;;6.00;6.00;;;;;19.43;50.59;99154.16;5087274;27;46306;-58
2023/06/28 05:04:34;;;;;;;;;3.50;3.00;;;;;19.47;51.07;99155.63;5092374;27;45532;-59
2023/06/28 05:07:04;;;;;;;;;4.50;4.00;;;;;19.47;50.35;99159.16;5069488;27;45424;-59
2023/06/28 05:09:34;;;;;;;;;6.00;5.75;;;;;19.49;50.91;99161.72;5090449;27;45539;-59
2023/06/28 05:12:01;;;;;;;;;2.20;2.00;;;;;19.50;50.81;99164.31;5086602;27;46727;-59
2023/06/28 05:14:29;;;;;;;;;3.40;3.40;;;;;19.50;50.80;99166.13;5074934;27;45996;-59
2023/06/28 05:16:54;;;;;;;;;3.40;3.40;;;;;19.48;51.20;99160.00;5079483;27;45388;-60
2023/06/28 05:19:22;;;;;;;;;5.25;4.50;;;;;19.49;51.14;99170.63;5093406;27;45522;-55
2023/06/28 05:21:47;;;;;;;;;7.00;4.00;;;;;19.46;51.22;99162.78;5090787;27;46429;-58
2023/06/28 05:24:14;;;;;;;;;6.00;4.00;;;;;19.43;51.11;99164.88;5093555;27;45392;-58
2023/06/28 05:26:39;;;;;;;;;4.80;3.00;;;;;19.41;51.45;99164.97;5091081;27;45630;-58
2023/06/28 05:29:05;;;;;;;;;3.00;3.00;;;;;19.40;51.91;99167.78;5093168;27;45531;-58
2023/06/28 05:31:30;;;;;;;;;3.00;3.00;;;;;19.35;51.33;99162.75;5086615;27;46197;-58
2023/06/28 05:33:56;;;;;;;;;4.75;3.50;;;;;19.35;51.99;99164.56;5093131;27;45395;-58
2023/06/28 05:36:22;;;;;;;;;2.00;2.00;;;;;19.39;51.84;99158.91;5091264;27;45427;-58
2023/06/28 05:38:48;;;;;;;;;4.00;4.00;;;;;19.43;52.30;99156.84;5090316;27;45542;-57
2023/06/28 05:41:15;;;;;;;;;6.00;5.25;;;;;19.44;52.76;99167.41;5081107;27;45563;-58
2023/06/28 05:43:43;;;;;;;;;4.60;4.60;;;;;19.43;51.76;99179.09;5087611;27;45355;-58
2023/06/28 05:46:08;;;;;;;;;3.25;3.25;;;;;19.38;51.86;99173.22;5091562;27;45530;-58
2023/06/28 05:48:34;;;;;;;;;6.00;5.00;;;;;19.34;52.03;99170.88;5091759;27;45519;-57
2023/06/28 05:50:59;;;;;;;;;6.25;5.25;;;;;19.34;52.44;99165.53;5087370;27;45521;-57
2023/06/28 05:53:25;;;;;;;;;4.00;4.00;;;;;19.33;52.22;99167.38;5083598;27;45473;-58
2023/06/28 05:55:50;;;;;;;;;5.50;5.00;;;;;19.36;52.73;99174.31;5078529;27;45560;-58
2023/06/28 05:58:16;;;;;;;;;6.00;6.00;;;;;19.37;52.97;99176.88;5072318;27;45555;-58
2023/06/28 06:00:42;;;;;;;;;7.00;4.00;;;;;19.36;52.91;99174.31;5080818;27;45541;-58
2023/06/28 06:03:08;;;;;;;;;4.80;4.80;;;;;19.32;52.61;99176.34;5078963;27;45508;-58
2023/06/28 06:05:33;;;;;;;;;5.00;5.00;;;;;19.32;53.62;99173.69;5087202;27;45381;-58
2023/06/28 06:07:59;;;;;;;;;6.75;6.00;;;;;19.31;53.41;99181.81;5087214;27;45456;-58
2023/06/28 06:10:24;;;;;;;;;6.50;4.75;;;;;19.34;53.50;99178.91;5089667;27;45767;-58
2023/06/28 06:12:50;;;;;;;;;5.00;5.00;;;;;19.35;53.92;99185.97;5087186;27;45378;-58
2023/06/28 06:15:16;;;;;;;;;6.00;5.00;;;;;19.35;53.55;99183.28;5093341;27;45580;-58
2023/06/28 06:17:41;;;;;;;;;4.25;3.25;;;;;19.33;53.14;99187.91;5091274;27;45531;-58
2023/06/28 06:20:07;;;;;;;;;3.00;3.00;;;;;19.32;52.57;99189.72;5094789;27;46208;-58
2023/06/28 06:22:32;;;;;;;;;6.00;4.50;;;;;19.32;53.55;99191.53;5088903;27;45539;-58
2023/06/28 06:24:58;;;;;;;;;4.50;4.50;;;;;19.32;53.07;99188.88;5081562;27;45428;-58
2023/06/28 06:27:23;;;;;;;;;4.00;4.00;;;;;19.35;52.59;99194.00;5089785;27;45415;-58
2023/06/28 06:29:49;;;;;;;;;6.50;5.00;;;;;19.35;52.56;99194.84;5094829;27;46072;-58
2023/06/28 06:32:14;;;;;;;;;3.50;3.00;;;;;19.37;52.49;99195.59;5086422;27;45909;-58
2023/06/28 06:34:39;;;;;;;;;4.50;4.00;;;;;19.39;52.59;99192.81;5093824;27;45390;-58
2023/06/28 06:37:05;;;;;;;;;5.00;5.00;;;;;19.41;52.02;99202.41;5089087;27;45628;-60
2023/06/28 06:39:30;;;;;;;;;6.00;5.00;;;;;19.48;52.39;99200.13;5092876;27;46668;-58
2023/06/28 06:41:55;;;;;;;;;5.75;3.75;;;;;19.54;52.19;99199.69;5086363;27;45440;-58
2023/06/28 06:44:21;;;;;;;;;4.25;4.25;;;;;19.59;52.10;99200.22;5096034;27;45304;-58
2023/06/28 06:46:46;;;;;;;;;4.00;4.00;;;;;19.63;51.77;99204.34;5081158;27;45411;-58
2023/06/28 06:49:12;;;;;;;;;4.50;4.25;;;;;19.66;51.14;99204.09;5093206;27;45411;-58
2023/06/28 06:51:37;;;;;;;;;6.00;4.00;;;;;19.74;51.32;99203.53;5093124;27;45538;-58
2023/06/28 06:54:03;;;;;;;;;5.25;5.00;;;;;19.80;51.04;99213.75;5090730;27;45513;-58
2023/06/28 06:56:28;;;;;;;;;5.00;4.75;;;;;19.87;51.34;99206.97;5090280;27;45692;-58
2023/06/28 06:58:53;;;;;;;;;5.50;5.00;;;;;19.93;51.51;99202.97;5089075;27;45506;-58
2023/06/28 07:01:19;;;;;;;;;5.75;3.00;;;;;19.98;50.49;99204.31;5088148;27;45430;-58
2023/06/28 07:03:44;;;;;;;;;3.00;3.00;;;;;20.06;50.77;99203.72;5085999;27;45495;-58
2023/06/28 07:06:09;;;;;;;;;4.00;3.00;;;;;20.12;50.13;99212.13;5089595;27;45388;-58
2023/06/28 07:08:35;;;;;;;;;7.00;4.50;;;;;20.20;49.78;99212.38;5093188;27;46077;-58
2023/06/28 07:11:01;;;;;;;;;7.00;5.00;;;;;20.27;50.02;99204.75;5087469;27;45620;-58
2023/06/28 07:13:26;;;;;;;;;5.25;5.25;;;;;20.35;49.58;99204.97;5095165;27;45443;-58
2023/06/28 07:15:51;;;;;;;;;4.00;4.00;;;;;20.44;49.28;99206.13;5089531;27;45544;-58
2023/06/28 07:18:17;;;;;;;;;4.00;4.00;;;;;20.52;49.77;99193.81;5077135;27;45606;-59
2023/06/28 07:20:42;;;;;;;;;7.00;5.00;;;;;20.62;50.45;99193.91;5090463;27;45408;-58
2023/06/28 07:23:08;;;;;;;;;5.00;5.00;;;;;20.71;49.79;99195.00;5091814;27;45494;-58
2023/06/28 07:25:33;;;;;;;;;6.00;6.00;;;;;20.78;49.39;99197.06;5084842;27;45396;-68
2023/06/28 07:27:59;;;;;;;;;6.50;4.75;;;;;20.84;49.41;99196.56;5094833;27;46132;-68
2023/06/28 07:30:24;;;;;;;;;5.25;4.25;;;;;20.89;48.79;99188.16;5090264;27;45444;-68
2023/06/28 07:32:49;;;;;;;;;5.00;5.00;;;;;20.93;47.83;99200.34;5095418;27;45424;-68
2023/06/28 07:35:15;;;;;;;;;6.25;4.50;;;;;20.96;49.13;99191.19;5092545;27;45382;-68
2023/06/28 07:37:40;;;;;;;;;5.00;5.00;;;;;21.00;48.74;99192.66;5095380;27;45909;-68
2023/06/28 07:40:06;;;;;;;;;5.00;5.00;;;;;21.02;49.12;99198.75;5093370;27;45658;-68
2023/06/28 07:42:31;;;;;;;;;5.00;5.00;;;;;21.05;48.50;99190.44;5074549;28;45453;-68
2023/06/28 07:44:58;;;;;;;;;6.00;4.00;;;;;21.10;48.72;99185.56;5088775;27;45384;-68
2023/06/28 07:47:23;;;;;;;;;5.80;4.00;;;;;21.15;48.42;99180.66;5088707;27;46068;-68
2023/06/28 07:49:49;;;;;;;;;4.50;4.50;;;;;21.19;48.14;99179.44;5093725;27;45406;-68
2023/06/28 07:52:14;;;;;;;;;4.50;4.00;;;;;21.20;48.13;99178.50;5091561;27;45473;-68
2023/06/28 07:54:40;;;;;;;;;8.00;4.00;;;;;21.21;48.30;99173.00;5094796;27;45324;-67
2023/06/28 07:57:05;;;;;;;;;7.50;5.25;;;;;21.23;48.28;99181.78;5086214;27;46604;-68
2023/06/28 07:59:30;;;;;;;;;8.00;5.75;;;;;21.26;47.59;99179.81;5074171;27;45416;-68
2023/06/28 08:01:56;;;;;;;;;3.50;3.50;;;;;21.28;47.46;99177.88;5086934;27;45389;-68
2023/06/28 08:04:22;;;;;;;;;9.00;4.00;;;;;21.34;48.12;99186.25;5090589;27;45537;-68
2023/06/28 08:06:48;;;;;;;;;3.60;3.60;;;;;21.41;48.00;99179.41;5076309;27;46322;-68
2023/06/28 08:09:13;;;;;;;;;4.25;4.00;;;;;21.46;47.70;99179.84;5074229;27;45617;-68
2023/06/28 08:11:39;;;;;;;;;5.50;4.25;;;;;21.51;47.56;99171.41;5087475;27;45405;-68
2023/06/28 08:14:05;;;;;;;;;5.75;5.25;;;;;21.57;47.55;99177.13;5090720;27;45533;-67
2023/06/28 08:16:31;;;;;;;;;5.00;5.00;;;;;21.63;46.53;99174.88;5090465;27;46059;-68
2023/06/28 08:18:56;;;;;;;;;3.00;3.00;;;;;21.65;46.84;99167.56;5092298;27;45341;-68
2023/06/28 08:21:22;;;;;;;;;4.25;4.00;;;;;21.68;45.59;99168.16;5088337;27;45465;-68
2023/06/28 08:23:47;;;;;;;;;5.00;4.25;;;;;21.70;45.56;99168.03;5070145;27;45468;-68
2023/06/28 08:26:13;;;;;;;;;4.25;3.75;;;;;21.71;45.54;99173.28;5086364;27;46127;-68
2023/06/28 08:28:38;;;;;;;;;3.50;3.00;;;;;21.76;45.31;99172.88;5095097;27;45384;-68
2023/06/28 08:31:04;;;;;;;;;3.00;3.00;;;;;21.78;45.69;99165.56;5100739;27;45428;-68
2023/06/28 08:33:29;;;;;;;;;5.25;4.25;;;;;21.85;45.80;99169.41;5088007;27;45489;-68
2023/06/28 08:35:55;;;;;;;;;4.50;4.50;;;;;21.93;45.33;99170.47;5086689;27;46499;-68
2023/06/28 08:38:20;;;;;;;;;4.50;4.00;;;;;22.02;45.43;99171.53;5065615;28;45337;-68
2023/06/28 08:40:45;;;;;;;;;6.75;3.00;;;;;22.08;44.61;99173.69;5092305;27;45910;-68
2023/06/28 08:43:15;;;;;;;;;3.00;3.00;;;;;22.15;45.11;99161.41;5094904;27;45511;-69
2023/06/28 08:45:43;;;;;;;;;3.00;3.00;;;;;22.26;43.59;99168.56;5067494;27;46328;-68
2023/06/28 08:48:09;;;;;;;;;3.00;3.00;;;;;22.35;44.10;99170.41;5086466;27;45472;-68
2023/06/28 08:50:37;;;;;;;;;3.50;3.50;;;;;22.44;44.01;99160.72;5090656;27;45470;-68
2023/06/28 08:53:05;;;;;;;;;4.60;4.60;;;;;22.51;43.36;99164.53;5085809;27;45536;-68
2023/06/28 08:55:30;;;;;;;;;4.00;3.00;;;;;22.56;43.04;99154.25;5082883;27;46097;-68
2023/06/28 08:57:57;;;;;;;;;5.50;4.50;;;;;22.62;42.95;99167.16;5092666;27;45429;-68
2023/06/28 09:00:23;;;;;;;;;3.80;3.80;;;;;22.65;42.79;99158.78;5090095;27;45472;-68
2023/06/28 09:02:49;;;;;;;;;5.00;5.00;;;;;22.70;43.61;99153.84;5091457;27;45360;-68
2023/06/28 09:05:17;;;;;;;;;1.60;1.60;;;;;22.76;43.45;99155.16;5090573;27;45660;-68
2023/06/28 09:07:44;;;;;;;;;3.40;2.00;;;;;22.83;43.28;99165.25;5071133;27;45405;-68
2023/06/28 09:10:10;;;;;;;;;2.00;1.40;;;;;22.88;42.89;99160.31;5092456;27;45411;-68
2023/06/28 09:12:38;;;;;;;;;8.20;5.00;;;;;22.94;43.63;99157.06;5090181;27;45507;-68
2023/06/28 09:15:04;;;;;;;;;2.80;2.80;;;;;23.01;42.90;99146.59;5091380;27;45674;-68
2023/06/28 09:17:29;;;;;;;;;4.00;4.00;;;;;23.07;42.64;99156.81;5094002;27;45907;-69
2023/06/28 09:20:01;;;;;;;;;4.00;4.00;;;;;23.14;41.65;99146.31;5092912;27;45519;-68
2023/06/28 09:22:28;;;;;;;;;4.50;4.50;;;;;23.20;42.37;99159.22;5072634;27;45531;-68
2023/06/28 09:24:53;;;;;;;;;4.60;3.20;;;;;23.24;42.06;99153.44;5092565;27;46679;-69
2023/06/28 09:27:19;;;;;;;;;4.00;4.00;;;;;23.31;41.89;99137.56;5090560;27;45444;-68
2023/06/28 09:29:58;;;;;;;;;5.75;5.50;;;;;23.38;42.52;99143.22;5093715;27;45400;-68
2023/06/28 09:32:23;;;;;;;;;3.00;3.00;;;;;23.41;42.42;99137.56;5093494;27;45767;-68
2023/06/28 09:34:49;;;;;;;;;4.50;4.00;;;;;23.49;42.31;99137.69;5092533;27;46298;-68
2023/06/28 09:37:15;;;;;;;;;3.00;3.00;;;;;23.55;42.59;99124.56;5088447;27;45463;-67
2023/06/28 09:39:40;;;;;;;;;4.75;4.75;;;;;23.65;42.41;99127.22;5084727;27;45393;-67
2023/06/28 09:42:06;;;;;;;;;4.00;4.00;;;;;23.75;41.65;99125.38;5076068;27;45755;-68
2023/06/28 09:44:31;;;;;;;;;7.00;4.00;;;;;23.85;41.56;99119.97;5084885;27;45526;-68
2023/06/28 09:47:02;;;;;;;;;3.00;3.00;;;;;23.91;42.00;99116.69;5080746;27;45567;-68
2023/06/28 09:49:28;;;;;;;;;4.60;4.00;;;;;23.97;41.41;99116.94;5091053;27;45503;-68
2023/06/28 09:51:58;;;;;;;;;4.00;3.00;;;;;24.04;41.65;99113.66;5088341;27;45532;-68
2023/06/28 09:54:39;;;;;;;;;3.00;3.00;;;;;24.13;41.96;99110.13;5096844;27;46752;-68
2023/06/28 09:57:05;;;;;;;;;3.60;3.60;;;;;24.20;41.37;99106.66;5085599;27;45551;-69
2023/06/28 09:59:33;;;;;;;;;5.20;4.20;;;;;24.28;40.85;99119.44;5097395;27;45432;-68
2023/06/28 10:02:06;;;;;;;;;4.20;3.20;;;;;24.27;40.91;99109.66;5090024;27;45786;-68
2023/06/28 10:04:34;;;;;;;;;3.00;2.60;;;;;24.28;41.33;99114.06;5097185;27;45303;-68
2023/06/28 10:07:01;;;;;;;;;4.80;4.80;;;;;24.32;40.59;99105.50;5094248;27;45481;-68
2023/06/28 10:09:37;;;;;;;;;4.40;4.40;;;;;24.35;40.90;99104.34;5093136;27;45496;-68
2023/06/28 10:12:12;;;;;;;;;5.60;4.80;;;;;24.42;41.15;99102.78;5094099;27;45469;-68
2023/06/28 10:14:48;;;;;;;;;5.00;5.00;;;;;24.49;41.14;99094.91;5096380;27;46090;-68
2023/06/28 10:17:14;;;;;;;;;5.00;3.00;;;;;24.59;40.95;99101.97;5080386;27;45447;-68
2023/06/28 10:19:40;;;;;;;;;6.20;6.00;;;;;24.67;40.75;99093.13;5088790;27;45515;-68
2023/06/28 10:22:06;;;;;;;;;5.75;5.50;;;;;24.77;41.20;99096.63;5083397;27;45579;-68
2023/06/28 10:24:35;;;;;;;;;5.00;4.00;;;;;24.87;40.47;99100.09;5096494;27;45378;-68
2023/06/28 10:27:02;;;;;;;;;5.60;5.00;;;;;24.92;40.79;99097.78;5080394;27;45395;-68
2023/06/28 10:29:29;;;;;;;;;6.80;5.00;;;;;24.92;40.85;99097.78;5075202;28;45432;-68
2023/06/28 10:31:55;;;;;;;;;4.80;4.00;;;;;24.94;40.60;99101.22;5090161;27;45488;-68
2023/06/28 10:34:21;;;;;;;;;4.75;4.75;;;;;25.00;40.21;99092.50;5096926;27;45483;-68
2023/06/28 10:36:47;;;;;;;;;5.60;5.60;;;;;25.09;40.02;99089.88;5080982;27;45319;-67
2023/06/28 10:39:12;;;;;;;;;7.50;5.50;;;;;25.12;39.83;99095.81;5096299;27;45395;-68
2023/06/28 10:41:38;;;;;;;;;5.75;5.75;;;;;25.13;38.90;99100.22;5088285;27;45578;-67
2023/06/28 10:44:05;;;;;;;;;4.75;4.75;;;;;25.17;39.64;99088.09;5095735;27;45589;-68
2023/06/28 10:46:31;;;;;;;;;5.00;3.80;;;;;25.23;39.22;99092.88;5087531;27;45380;-68
2023/06/28 10:49:01;;;;;;;;;4.20;4.00;;;;;25.27;39.68;99088.03;5086157;27;45360;-68
2023/06/28 10:51:28;;;;;;;;;4.80;3.80;;;;;25.31;39.64;99079.44;5084313;27;45506;-67
2023/06/28 10:54:13;;;;;;;;;4.60;4.00;;;;;25.36;39.69;99082.53;5091200;27;45701;-67
2023/06/28 10:56:48;;;;;;;;;5.00;5.00;;;;;25.45;39.13;99072.66;5086796;27;45601;-66
2023/06/28 10:59:14;;;;;;;;;9.80;7.20;;;;;25.51;39.02;99084.66;5089426;27;45394;-66
2023/06/28 11:01:48;;;;;;;;;3.00;3.00;;;;;25.51;39.32;99085.50;5089039;27;45452;-67
2023/06/28 11:04:22;;;;;;;;;5.40;4.40;;;;;25.56;38.64;99083.19;5096227;27;46344;-67
2023/06/28 11:07:02;;;;;;;;;4.80;4.60;;;;;25.60;39.17;99087.28;5090983;27;45471;-66
2023/06/28 11:09:28;;;;;;;;;3.80;3.80;;;;;25.63;38.78;99081.63;5095860;27;45495;-67
2023/06/28 11:11:59;;;;;;;;;6.75;5.00;;;;;25.62;38.93;99090.72;5090254;27;45397;-63
2023/06/28 11:14:30;;;;;;;;;4.60;4.20;;;;;25.60;39.49;99078.34;5092777;27;45838;-63
2023/06/28 11:17:01;;;;;;;;;4.40;4.40;;;;;25.62;39.34;99084.47;5080278;27;45448;-62
2023/06/28 11:19:27;;;;;;;;;4.20;4.00;;;;;25.65;39.65;99071.47;5094460;27;45317;-63
2023/06/28 11:22:00;;;;;;;;;4.20;4.00;;;;;25.69;38.90;99090.91;5093964;27;45435;-63
2023/06/28 11:24:41;;;;;;;;;6.20;4.40;;;;;25.73;38.90;99073.41;5093908;27;45416;-62
2023/06/28 11:27:15;;;;;;;;;5.40;4.80;;;;;25.78;39.23;99071.06;5089198;27;45396;-64
2023/06/28 11:29:53;;;;;;;;;5.20;4.20;;;;;25.86;38.77;99075.66;5096481;27;45457;-66